createdAt,value
2023-04-18T00:01:33.398Z,8.15
2023-04-18T00:04:00.377Z,7.65
2023-04-18T00:06:27.162Z,7.10
2023-04-18T00:08:53.906Z,6.68
2023-04-18T00:11:20.709Z,7.28
2023-04-18T00:13:47.553Z,7.25
2023-04-18T00:16:14.599Z,6.68
2023-04-18T00:18:41.331Z,7.20
2023-04-18T00:21:08.646Z,6.22
2023-04-18T00:23:35.904Z,7.32
2023-04-18T00:26:02.663Z,6.60
2023-04-18T00:28:29.305Z,6.07
2023-04-18T00:30:55.961Z,6.50
2023-04-18T00:33:23.215Z,5.80
2023-04-18T00:35:51.839Z,5.40
2023-04-18T00:38:18.456Z,6.20
2023-04-18T00:40:47.818Z,5.82
2023-04-18T00:43:14.868Z,5.80
2023-04-18T00:45:42.021Z,5.75
2023-04-18T00:48:09.306Z,5.68
2023-04-18T00:50:37.190Z,5.50
2023-04-18T00:53:03.988Z,6.32
2023-04-18T00:55:30.742Z,5.50
2023-04-18T00:57:57.408Z,5.90
2023-04-18T01:00:24.656Z,6.40
2023-04-18T01:02:53.979Z,6.00
2023-04-18T01:05:21.791Z,5.75
2023-04-18T01:07:48.465Z,5.78
2023-04-18T01:10:15.244Z,5.68
2023-04-18T01:12:42.332Z,6.22
2023-04-18T01:15:09.132Z,5.13
2023-04-18T01:17:36.632Z,5.25
2023-04-18T01:20:06.255Z,5.60
2023-04-18T01:22:33.716Z,5.60
2023-04-18T01:25:00.577Z,6.30
2023-04-18T01:27:27.221Z,6.05
2023-04-18T01:29:54.032Z,5.72
2023-04-18T01:32:21.369Z,5.93
2023-04-18T01:34:48.096Z,5.78
2023-04-18T01:37:14.721Z,5.60
2023-04-18T01:39:41.375Z,5.38
2023-04-18T01:42:08.050Z,4.72
2023-04-18T01:44:34.725Z,4.97
2023-04-18T01:47:01.483Z,5.80
2023-04-18T01:49:28.289Z,5.90
2023-04-18T01:51:54.948Z,5.07
2023-04-18T01:54:21.714Z,5.18
2023-04-18T01:56:48.349Z,5.50
2023-04-18T01:59:15.111Z,6.20
2023-04-18T02:01:42.409Z,5.65
2023-04-18T02:04:09.133Z,5.05
2023-04-18T02:06:35.970Z,5.28
2023-04-18T02:10:03.014Z,5.63
2023-04-18T02:12:29.629Z,5.15
2023-04-18T02:14:57.238Z,5.50
2023-04-18T02:17:25.975Z,5.47
2023-04-18T02:19:54.468Z,5.43
2023-04-18T02:22:21.050Z,5.55
2023-04-18T02:24:47.623Z,5.82
2023-04-18T02:27:16.031Z,5.78
2023-04-18T02:29:42.613Z,5.28
2023-04-18T02:32:09.344Z,6.05
2023-04-18T02:34:37.148Z,6.00
2023-04-18T02:37:04.651Z,6.18
2023-04-18T02:39:32.329Z,6.43
2023-04-18T02:41:59.023Z,6.65
2023-04-18T02:44:25.655Z,6.47
2023-04-18T02:46:52.434Z,6.28
2023-04-18T02:49:19.144Z,5.85
2023-04-18T02:51:46.511Z,6.38
2023-04-18T02:54:13.449Z,6.82
2023-04-18T02:57:03.468Z,5.68
2023-04-18T03:00:02.584Z,5.63
2023-04-18T03:02:59.005Z,6.32
2023-04-18T03:05:37.074Z,6.40
2023-04-18T03:08:05.764Z,6.80
2023-04-18T03:10:34.838Z,6.53
2023-04-18T03:13:04.615Z,6.07
2023-04-18T03:15:31.320Z,7.65
2023-04-18T03:17:58.497Z,7.05
2023-04-18T03:20:28.266Z,6.53
2023-04-18T03:22:54.912Z,7.05
2023-04-18T03:25:25.013Z,7.55
2023-04-18T03:27:53.217Z,6.85
2023-04-18T03:30:22.073Z,7.10
2023-04-18T03:32:53.637Z,6.63
2023-04-18T03:35:20.749Z,7.43
2023-04-18T03:37:47.398Z,6.43
2023-04-18T03:40:23.405Z,7.68
2023-04-18T03:42:52.771Z,7.53
2023-04-18T03:45:19.830Z,9.07
2023-04-18T03:47:47.400Z,7.63
2023-04-18T03:50:15.054Z,9.20
2023-04-18T03:52:43.074Z,7.30
2023-04-18T03:55:09.869Z,9.48
2023-04-18T03:57:37.283Z,8.38
2023-04-18T04:00:08.773Z,7.57
2023-04-18T04:02:42.234Z,7.93
2023-04-18T04:05:11.804Z,8.00
2023-04-18T04:07:38.553Z,7.63
2023-04-18T04:10:06.687Z,7.22
2023-04-18T04:12:33.292Z,7.95
2023-04-18T04:14:59.934Z,8.73
2023-04-18T04:17:27.081Z,8.18
2023-04-18T04:19:53.813Z,7.82
2023-04-18T04:22:21.272Z,7.20
2023-04-18T04:24:47.961Z,7.70
2023-04-18T04:27:18.822Z,7.63
2023-04-18T04:29:45.987Z,8.10
2023-04-18T04:32:13.466Z,8.85
2023-04-18T04:34:41.615Z,8.40
2023-04-18T04:37:10.595Z,7.40
2023-04-18T04:39:46.514Z,7.78
2023-04-18T04:42:40.973Z,6.80
2023-04-18T04:45:13.788Z,7.78
2023-04-18T04:47:40.454Z,7.95
2023-04-18T04:50:11.595Z,7.57
2023-04-18T04:52:40.116Z,8.20
2023-04-18T04:55:07.046Z,7.70
2023-04-18T04:57:34.090Z,7.93
2023-04-18T05:00:03.576Z,8.20
2023-04-18T05:02:30.353Z,8.25
2023-04-18T05:04:57.161Z,7.97
2023-04-18T05:07:23.854Z,8.70
2023-04-18T05:09:53.056Z,7.75
2023-04-18T05:12:19.760Z,8.20
2023-04-18T05:14:46.387Z,7.75
2023-04-18T05:17:12.939Z,7.13
2023-04-18T05:19:40.168Z,7.20
2023-04-18T05:22:06.730Z,6.82
2023-04-18T05:24:33.370Z,7.15
2023-04-18T05:27:00.004Z,6.82
2023-04-18T05:29:26.636Z,7.28
2023-04-18T05:31:53.323Z,7.60
2023-04-18T05:34:19.935Z,7.18
2023-04-18T05:36:47.843Z,7.53
2023-04-18T05:39:14.454Z,6.70
2023-04-18T05:41:41.079Z,7.50
2023-04-18T05:44:07.712Z,7.22
2023-04-18T05:46:34.359Z,6.78
2023-04-18T05:49:01.305Z,7.07
2023-04-18T05:51:30.532Z,7.40
2023-04-18T05:53:57.128Z,6.95
2023-04-18T05:56:23.680Z,7.07
2023-04-18T05:58:51.314Z,7.57
2023-04-18T06:01:21.317Z,7.00
2023-04-18T06:03:48.137Z,6.88
2023-04-18T06:06:14.832Z,7.13
2023-04-18T06:08:41.549Z,6.38
2023-04-18T06:11:08.992Z,8.52
2023-04-18T06:13:36.699Z,8.82
2023-04-18T06:16:03.729Z,7.65
2023-04-18T06:18:30.372Z,7.70
2023-04-18T06:20:56.945Z,10.23
2023-04-18T06:23:23.491Z,8.98
2023-04-18T06:25:50.058Z,9.13
2023-04-18T06:28:16.685Z,7.75
2023-04-18T06:30:45.372Z,10.38
2023-04-18T06:33:12.166Z,8.40
2023-04-18T06:35:38.859Z,11.18
2023-04-18T06:38:05.805Z,10.57
2023-04-18T06:40:32.388Z,9.95
2023-04-18T06:42:58.954Z,10.27
2023-04-18T06:45:25.638Z,9.10
2023-04-18T06:47:53.096Z,10.30
2023-04-18T06:50:19.821Z,9.07
2023-04-18T06:52:46.466Z,9.90
2023-04-18T06:55:13.565Z,8.38
2023-04-18T06:57:42.770Z,9.65
2023-04-18T07:00:10.501Z,9.68
2023-04-18T07:02:38.392Z,9.35
2023-04-18T07:05:05.989Z,10.27
2023-04-18T07:07:33.569Z,10.32
2023-04-18T07:10:00.252Z,9.38
2023-04-18T07:12:27.321Z,10.18
2023-04-18T07:14:54.601Z,9.10
2023-04-18T07:17:21.327Z,9.82
2023-04-18T07:19:47.967Z,9.48
2023-04-18T07:22:14.517Z,9.35
2023-04-18T07:24:41.144Z,8.70
2023-04-18T07:27:09.405Z,8.90
2023-04-18T07:29:36.142Z,9.52
2023-04-18T07:32:03.077Z,9.02
2023-04-18T07:34:30.132Z,9.88
2023-04-18T07:36:57.364Z,9.45
2023-04-18T07:39:24.157Z,10.70
2023-04-18T07:41:50.886Z,5.75
2023-04-18T07:44:18.203Z,8.38
2023-04-18T07:46:45.010Z,9.30
2023-04-18T07:49:11.819Z,10.00
2023-04-18T07:51:38.597Z,8.82
2023-04-18T07:54:05.304Z,8.75
2023-04-18T07:56:31.885Z,10.20
2023-04-18T07:59:01.675Z,10.68
2023-04-18T08:01:28.280Z,9.35
2023-04-18T08:03:56.568Z,10.02
2023-04-18T08:06:23.316Z,10.07
2023-04-18T08:08:49.922Z,10.20
2023-04-18T08:11:16.559Z,9.85
2023-04-18T08:13:43.298Z,9.98
2023-04-18T08:16:10.001Z,5.03
2023-04-18T08:18:36.638Z,10.73
2023-04-18T08:21:03.417Z,10.50
2023-04-18T08:23:30.049Z,9.57
2023-04-18T08:25:56.663Z,10.07
2023-04-18T08:28:23.246Z,9.32
2023-04-18T08:30:51.238Z,9.93
2023-04-18T08:33:18.688Z,10.25
2023-04-18T08:35:45.252Z,10.20
2023-04-18T08:38:11.882Z,10.50
2023-04-18T08:40:38.712Z,11.13
2023-04-18T08:43:09.329Z,10.43
2023-04-18T08:45:36.811Z,10.80
2023-04-18T08:48:03.895Z,9.65
2023-04-18T08:50:30.839Z,10.90
2023-04-18T08:52:59.631Z,9.75
2023-04-18T08:55:26.519Z,9.65
2023-04-18T08:57:56.440Z,10.65
2023-04-18T09:00:23.669Z,10.35
2023-04-18T09:02:50.822Z,9.55
2023-04-18T09:05:19.692Z,9.60
2023-04-18T09:07:47.666Z,9.93
2023-04-18T09:10:25.110Z,9.38
2023-04-18T09:12:52.295Z,10.48
2023-04-18T09:15:26.861Z,9.65
2023-04-18T09:17:54.313Z,9.90
2023-04-18T09:20:43.860Z,9.15
2023-04-18T09:23:14.553Z,9.48
2023-04-18T09:25:43.282Z,10.00
2023-04-18T09:28:32.025Z,9.70
2023-04-18T09:31:19.000Z,10.50
2023-04-18T09:33:54.420Z,9.52
2023-04-18T09:36:22.115Z,10.35
2023-04-18T09:38:50.006Z,9.95
2023-04-18T09:41:19.166Z,9.50
2023-04-18T09:43:48.147Z,10.70
2023-04-18T09:46:17.453Z,10.50
2023-04-18T09:48:44.186Z,10.02
2023-04-18T09:51:12.168Z,10.43
2023-04-18T09:53:40.517Z,10.98
2023-04-18T09:56:10.586Z,11.05
2023-04-18T09:58:41.008Z,9.93
2023-04-18T10:01:08.031Z,10.52
2023-04-18T10:03:42.171Z,10.80
2023-04-18T10:06:09.421Z,8.88
2023-04-18T10:08:36.045Z,11.15
2023-04-18T10:11:04.141Z,8.60
2023-04-18T10:13:31.145Z,11.15
2023-04-18T10:15:58.683Z,10.90
2023-04-18T10:18:28.267Z,9.98
2023-04-18T10:21:03.116Z,11.80
2023-04-18T10:23:34.670Z,10.30
2023-04-18T10:26:03.698Z,11.90
2023-04-18T10:28:58.969Z,10.48
2023-04-18T10:31:27.865Z,11.10
2023-04-18T10:36:28.016Z,11.65
2023-04-18T10:39:21.812Z,12.93
2023-04-18T10:41:50.611Z,12.50
2023-04-18T10:44:19.478Z,11.73
2023-04-18T10:46:52.142Z,12.05
2023-04-18T10:49:18.790Z,11.80
2023-04-18T10:51:56.172Z,11.95
2023-04-18T10:54:30.709Z,11.00
2023-04-18T10:56:59.949Z,12.07
2023-04-18T10:59:26.937Z,11.82
2023-04-18T11:01:57.275Z,11.93
2023-04-18T11:04:25.365Z,12.05
2023-04-18T11:06:54.801Z,11.30
2023-04-18T11:09:22.443Z,12.10
2023-04-18T11:12:04.600Z,12.30
2023-04-18T11:14:45.427Z,11.07
2023-04-18T11:17:23.667Z,11.70
2023-04-18T11:19:51.668Z,11.35
2023-04-18T11:22:19.072Z,11.07
2023-04-18T11:24:45.695Z,12.07
2023-04-18T11:27:12.814Z,12.45
2023-04-18T11:29:39.458Z,12.05
2023-04-18T11:32:07.453Z,13.20
2023-04-18T11:34:34.285Z,13.05
2023-04-18T11:37:01.518Z,12.52
2023-04-18T11:39:28.197Z,13.23
2023-04-18T11:41:57.014Z,12.93
2023-04-18T11:44:24.678Z,13.10
2023-04-18T11:46:51.898Z,11.18
2023-04-18T11:49:32.127Z,12.15
2023-04-18T11:51:59.998Z,11.60
2023-04-18T11:54:41.045Z,11.57
2023-04-18T11:57:19.952Z,11.88
2023-04-18T11:59:57.817Z,11.90
2023-04-18T12:02:48.346Z,11.50
2023-04-18T12:05:32.646Z,10.98
2023-04-18T12:08:09.395Z,11.60
2023-04-18T12:10:36.134Z,11.68
2023-04-18T12:13:06.735Z,10.57
2023-04-18T12:15:33.638Z,12.43
2023-04-18T12:18:02.262Z,11.98
2023-04-18T12:20:47.271Z,12.98
2023-04-18T12:23:30.413Z,10.82
2023-04-18T12:26:04.588Z,11.68
2023-04-18T12:28:31.608Z,11.13
2023-04-18T12:30:58.901Z,11.35
2023-04-18T12:33:26.285Z,11.80
2023-04-18T12:35:53.324Z,12.43
2023-04-18T12:38:23.916Z,11.18
2023-04-18T12:40:51.656Z,11.82
2023-04-18T12:43:18.945Z,11.90
2023-04-18T12:45:46.657Z,11.45
2023-04-18T12:48:13.710Z,11.65
2023-04-18T12:50:40.361Z,11.82
2023-04-18T12:53:06.966Z,9.45
2023-04-18T12:55:35.017Z,12.57
2023-04-18T12:58:01.598Z,13.02
2023-04-18T13:00:30.301Z,12.20
2023-04-18T13:02:57.706Z,10.77
2023-04-18T13:05:29.936Z,12.10
2023-04-18T13:08:15.450Z,12.07
2023-04-18T13:10:43.432Z,12.45
2023-04-18T13:13:10.084Z,11.73
2023-04-18T13:15:36.712Z,12.35
2023-04-18T13:18:06.165Z,12.07
2023-04-18T13:20:33.731Z,11.70
2023-04-18T13:23:00.715Z,11.80
2023-04-18T13:25:27.361Z,11.25
2023-04-18T13:27:54.070Z,12.15
2023-04-18T13:30:21.066Z,11.75
2023-04-18T13:32:47.811Z,12.32
2023-04-18T13:35:14.393Z,10.27
2023-04-18T13:37:41.289Z,12.35
2023-04-18T13:40:08.313Z,12.15
2023-04-18T13:42:36.848Z,12.05
2023-04-18T13:45:04.014Z,11.02
2023-04-18T13:47:30.794Z,11.50
2023-04-18T13:49:57.854Z,10.63
2023-04-18T13:52:24.737Z,11.13
2023-04-18T13:54:51.351Z,8.95
2023-04-18T13:57:17.972Z,10.50
2023-04-18T13:59:44.668Z,10.65
2023-04-18T14:02:11.443Z,10.95
2023-04-18T14:04:38.320Z,10.38
2023-04-18T14:07:06.356Z,9.63
2023-04-18T14:09:34.084Z,10.57
2023-04-18T14:12:01.097Z,9.43
2023-04-18T14:14:27.986Z,10.85
2023-04-18T14:16:54.709Z,11.18
2023-04-18T14:19:21.542Z,10.75
2023-04-18T14:21:48.521Z,9.88
2023-04-18T14:24:15.288Z,9.77
2023-04-18T14:26:42.015Z,9.68
2023-04-18T14:29:08.658Z,10.20
2023-04-18T14:31:35.465Z,9.80
2023-04-18T14:34:02.208Z,9.57
2023-04-18T14:36:28.834Z,9.13
2023-04-18T14:38:55.528Z,9.65
2023-04-18T14:41:22.189Z,10.02
2023-04-18T14:43:48.814Z,9.40
2023-04-18T14:46:19.441Z,10.15
2023-04-18T14:48:47.193Z,10.30
2023-04-18T14:51:15.983Z,10.80
2023-04-18T14:53:42.796Z,10.18
2023-04-18T14:56:09.455Z,10.27
2023-04-18T14:58:36.238Z,9.77
2023-04-18T15:01:04.145Z,10.07
2023-04-18T15:03:31.060Z,10.70
2023-04-18T15:05:57.910Z,9.68
2023-04-18T15:08:24.590Z,10.82
2023-04-18T15:10:51.278Z,9.15
2023-04-18T15:13:17.942Z,9.05
2023-04-18T15:15:51.686Z,9.18
2023-04-18T15:18:18.312Z,8.30
2023-04-18T15:20:44.929Z,9.60
2023-04-18T15:23:13.715Z,9.75
2023-04-18T15:25:41.404Z,9.30
2023-04-18T15:28:08.034Z,8.68
2023-04-18T15:30:34.617Z,9.73
2023-04-18T15:33:02.267Z,8.85
2023-04-18T15:35:29.011Z,8.65
2023-04-18T15:37:56.550Z,8.75
2023-04-18T15:40:23.595Z,7.88
2023-04-18T15:42:50.937Z,8.48
2023-04-18T15:45:17.768Z,8.38
2023-04-18T15:47:46.007Z,8.38
2023-04-18T15:50:12.741Z,8.10
2023-04-18T15:52:41.417Z,8.90
2023-04-18T15:55:10.715Z,8.60
2023-04-18T15:57:37.463Z,8.82
2023-04-18T16:00:10.144Z,9.25
2023-04-18T16:02:37.053Z,9.30
2023-04-18T16:05:04.553Z,9.10
2023-04-18T16:07:31.187Z,8.23
2023-04-18T16:09:57.854Z,9.18
2023-04-18T16:12:24.551Z,9.60
2023-04-18T16:14:51.361Z,8.98
2023-04-18T16:17:17.949Z,9.25
2023-04-18T16:19:44.555Z,9.13
2023-04-18T16:22:12.177Z,9.40
2023-04-18T16:24:40.455Z,9.65
2023-04-18T16:27:08.652Z,8.35
2023-04-18T16:29:35.405Z,8.75
2023-04-18T16:32:03.289Z,9.18
2023-04-18T16:34:30.053Z,8.55
2023-04-18T16:36:56.683Z,9.07
2023-04-18T16:39:23.597Z,9.18
2023-04-18T16:41:51.146Z,9.27
2023-04-18T16:44:17.794Z,9.07
2023-04-18T16:46:44.573Z,9.32
2023-04-18T16:49:11.546Z,8.82
2023-04-18T16:51:38.600Z,8.63
2023-04-18T16:54:09.853Z,7.30
2023-04-18T16:56:38.045Z,8.73
2023-04-18T16:59:04.850Z,8.68
2023-04-18T17:01:31.861Z,8.38
2023-04-18T17:03:59.091Z,8.63
2023-04-18T17:06:27.155Z,8.65
2023-04-18T17:08:54.021Z,9.02
2023-04-18T17:11:21.159Z,9.63
2023-04-18T17:13:48.012Z,9.23
2023-04-18T17:16:14.612Z,9.18
2023-04-18T17:18:41.722Z,8.35
2023-04-18T17:21:12.224Z,7.85
2023-04-18T17:23:42.688Z,8.75
2023-04-18T17:26:10.193Z,9.27
2023-04-18T17:28:37.031Z,9.43
2023-04-18T17:31:03.996Z,8.98
2023-04-18T17:33:31.234Z,9.30
2023-04-18T17:35:58.164Z,8.70
2023-04-18T17:38:24.970Z,10.05
2023-04-18T17:41:01.902Z,9.30
2023-04-18T17:43:28.639Z,8.45
2023-04-18T17:45:58.999Z,9.82
2023-04-18T17:48:26.068Z,9.05
2023-04-18T17:50:53.425Z,10.10
2023-04-18T17:53:23.280Z,19.15
2023-04-18T17:55:52.249Z,23.85
2023-04-18T17:58:19.933Z,15.02
2023-04-18T18:00:47.719Z,16.00
2023-04-18T18:03:15.352Z,12.55
2023-04-18T18:06:09.494Z,14.90
2023-04-18T18:08:36.682Z,11.93
2023-04-18T18:11:03.541Z,12.90
2023-04-18T18:13:30.268Z,10.68
2023-04-18T18:15:58.030Z,10.48
2023-04-18T18:18:29.795Z,9.48
2023-04-18T18:20:57.982Z,9.95
2023-04-18T18:23:25.020Z,9.77
2023-04-18T18:25:52.174Z,10.10
2023-04-18T18:28:19.328Z,10.82
2023-04-18T18:30:46.129Z,10.20
2023-04-18T18:33:12.844Z,9.57
2023-04-18T18:35:39.766Z,9.98
2023-04-18T18:38:07.216Z,10.65
2023-04-18T18:40:34.247Z,10.00
2023-04-18T18:43:00.931Z,10.23
2023-04-18T18:45:29.295Z,8.88
2023-04-18T18:47:55.941Z,10.07
2023-04-18T18:50:23.206Z,9.35
2023-04-18T18:52:49.827Z,9.55
2023-04-18T18:55:16.600Z,10.98
2023-04-18T18:57:43.289Z,10.15
2023-04-18T19:00:11.071Z,10.85
2023-04-18T19:02:39.851Z,10.98
2023-04-18T19:05:07.373Z,11.57
2023-04-18T19:07:34.127Z,9.80
2023-04-18T19:10:01.659Z,10.55
2023-04-18T19:12:29.536Z,10.32
2023-04-18T19:14:56.322Z,10.77
2023-04-18T19:17:24.791Z,10.73
2023-04-18T19:19:52.681Z,10.93
2023-04-18T19:22:19.472Z,11.27
2023-04-18T19:24:48.049Z,11.15
2023-04-18T19:27:15.365Z,10.63
2023-04-18T19:29:42.819Z,10.90
2023-04-18T19:32:10.800Z,11.15
2023-04-18T19:34:38.265Z,10.52
2023-04-18T19:37:05.435Z,11.27
2023-04-18T19:39:32.083Z,10.27
2023-04-18T19:41:59.070Z,11.55
2023-04-18T19:44:25.830Z,11.80
2023-04-18T19:46:52.755Z,10.68
2023-04-18T19:49:19.718Z,11.65
2023-04-18T19:51:46.497Z,10.18
2023-04-18T19:54:14.044Z,10.82
2023-04-18T19:56:40.784Z,11.68
2023-04-18T19:59:07.595Z,10.55
2023-04-18T20:01:34.275Z,11.15
2023-04-18T20:04:01.209Z,10.52
2023-04-18T20:06:28.976Z,11.57
2023-04-18T20:08:55.769Z,11.00
2023-04-18T20:11:22.441Z,11.25
2023-04-18T20:13:49.406Z,12.23
2023-04-18T20:16:16.869Z,10.15
2023-04-18T20:18:44.398Z,12.52
2023-04-18T20:21:11.210Z,10.50
2023-04-18T20:23:38.256Z,12.07
2023-04-18T20:26:04.823Z,12.02
2023-04-18T20:28:31.953Z,11.48
2023-04-18T20:30:58.980Z,10.52
2023-04-18T20:33:25.709Z,12.32
2023-04-18T20:35:54.748Z,12.55
2023-04-18T20:38:32.132Z,12.63
2023-04-18T20:41:00.617Z,11.77
2023-04-18T20:43:27.969Z,12.52
2023-04-18T20:45:57.771Z,10.98
2023-04-18T20:48:24.760Z,12.90
2023-04-18T20:50:51.772Z,12.68
2023-04-18T20:53:27.009Z,11.85
2023-04-18T20:55:54.227Z,12.57
2023-04-18T20:58:21.020Z,12.40
2023-04-18T21:00:48.800Z,11.23
2023-04-18T21:03:16.622Z,12.43
2023-04-18T21:05:48.719Z,9.90
2023-04-18T21:08:15.621Z,12.00
2023-04-18T21:10:42.584Z,12.52
2023-04-18T21:13:09.395Z,11.88
2023-04-18T21:15:36.175Z,12.32
2023-04-18T21:18:02.942Z,13.05
2023-04-18T21:20:29.657Z,11.02
2023-04-18T21:22:56.644Z,12.55
2023-04-18T21:25:23.283Z,11.60
2023-04-18T21:27:50.843Z,12.65
2023-04-18T21:30:17.606Z,11.07
2023-04-18T21:32:45.765Z,11.35
2023-04-18T21:35:12.764Z,11.20
2023-04-18T21:37:39.388Z,11.05
2023-04-18T21:40:07.022Z,12.55
2023-04-18T21:42:35.094Z,13.05
2023-04-18T21:45:01.944Z,12.50
2023-04-18T21:47:28.748Z,12.75
2023-04-18T21:49:55.699Z,12.27
2023-04-18T21:52:22.489Z,12.05
2023-04-18T21:54:49.492Z,12.20
2023-04-18T21:57:16.171Z,11.85
2023-04-18T21:59:42.909Z,11.52
2023-04-18T22:02:09.628Z,11.80
2023-04-18T22:04:38.013Z,11.93
2023-04-18T22:07:04.893Z,10.70
2023-04-18T22:09:33.800Z,12.07
2023-04-18T22:12:00.500Z,11.75
2023-04-18T22:14:28.327Z,11.20
2023-04-18T22:16:54.978Z,12.68
2023-04-18T22:19:21.591Z,11.73
2023-04-18T22:21:48.175Z,12.35
2023-04-18T22:24:16.314Z,12.38
2023-04-18T22:26:43.211Z,11.75
2023-04-18T22:29:15.168Z,12.70
2023-04-18T22:31:42.187Z,12.82
2023-04-18T22:34:08.882Z,11.57
2023-04-18T22:36:35.621Z,11.80
2023-04-18T22:39:02.248Z,12.00
2023-04-18T22:41:28.942Z,11.02
2023-04-18T22:43:55.970Z,13.20
2023-04-18T22:46:22.667Z,11.52
2023-04-18T22:48:49.463Z,12.80
2023-04-18T22:51:18.141Z,12.68
2023-04-18T22:53:44.775Z,11.85
2023-04-18T22:56:11.645Z,12.95
2023-04-18T22:58:38.338Z,12.38
2023-04-18T23:01:05.209Z,12.25
2023-04-18T23:03:34.470Z,12.85
2023-04-18T23:06:01.543Z,13.25
2023-04-18T23:08:28.432Z,11.68
2023-04-18T23:13:37.146Z,12.80
2023-04-18T23:16:03.911Z,11.52
2023-04-18T23:18:30.922Z,12.20
2023-04-18T23:20:59.213Z,12.25
2023-04-18T23:23:25.941Z,12.57
2023-04-18T23:28:36.600Z,11.98
2023-04-18T23:31:03.317Z,12.43
2023-04-18T23:33:29.965Z,12.52
2023-04-18T23:35:56.579Z,12.45
2023-04-18T23:38:23.251Z,13.00
2023-04-18T23:40:49.880Z,10.88
2023-04-18T23:43:16.484Z,12.15
2023-04-18T23:45:43.081Z,11.80
2023-04-18T23:48:09.840Z,12.40
2023-04-18T23:50:36.784Z,11.32
2023-04-18T23:53:03.389Z,12.23
2023-04-18T23:55:32.079Z,12.10
2023-04-18T23:57:58.693Z,11.50
